createdAt,value
2022-08-08T00:00:59.660Z,0.80
2022-08-08T00:03:31.590Z,1.10
2022-08-08T00:06:34.722Z,1.10
2022-08-08T00:09:43.515Z,1.00
2022-08-08T00:12:14.823Z,0.60
2022-08-08T00:15:24.188Z,1.02
2022-08-08T00:18:13.564Z,0.75
2022-08-08T00:20:56.626Z,0.73
2022-08-08T00:23:47.646Z,0.73
2022-08-08T00:26:29.466Z,0.80
2022-08-08T00:29:45.672Z,0.60
2022-08-08T00:32:35.474Z,0.93
2022-08-08T00:35:21.371Z,0.80
2022-08-08T00:38:01.204Z,0.73
2022-08-08T00:41:09.933Z,0.98
2022-08-08T00:43:24.658Z,1.05
2022-08-08T00:46:17.959Z,0.77
2022-08-08T00:49:22.821Z,1.08
2022-08-08T00:52:29.082Z,1.08
2022-08-08T00:55:35.936Z,0.70
2022-08-08T00:58:31.936Z,1.00
2022-08-08T01:01:19.632Z,1.10
2022-08-08T01:04:29.880Z,0.68
2022-08-08T01:07:11.624Z,0.75
2022-08-08T01:09:53.473Z,1.35
2022-08-08T01:12:29.792Z,0.70
2022-08-08T01:15:44.370Z,0.60
2022-08-08T01:18:52.457Z,0.70
2022-08-08T01:22:09.893Z,0.90
2022-08-08T01:24:57.246Z,0.63
2022-08-08T01:27:59.312Z,0.70
2022-08-08T01:30:26.878Z,0.73
2022-08-08T01:33:23.930Z,0.73
2022-08-08T01:36:19.523Z,0.73
2022-08-08T01:39:23.421Z,0.70
2022-08-08T01:41:59.874Z,1.02
2022-08-08T01:45:00.922Z,1.33
2022-08-08T01:48:15.046Z,0.70
2022-08-08T01:50:58.237Z,0.80
2022-08-08T01:54:33.245Z,0.75
2022-08-08T01:56:42.379Z,0.70
2022-08-08T01:59:38.061Z,0.82
2022-08-08T02:02:41.352Z,0.95
2022-08-08T02:05:33.922Z,0.60
2022-08-08T02:08:45.683Z,0.73
2022-08-08T02:11:52.875Z,0.90
2022-08-08T02:14:55.240Z,0.70
2022-08-08T02:17:54.219Z,0.55
2022-08-08T02:21:01.104Z,0.80
2022-08-08T02:23:31.786Z,0.80
2022-08-08T02:26:25.387Z,0.77
2022-08-08T02:29:46.681Z,0.77
2022-08-08T02:32:37.803Z,0.68
2022-08-08T02:35:35.791Z,0.70
2022-08-08T02:38:35.087Z,0.70
2022-08-08T02:41:58.942Z,0.60
2022-08-08T02:44:56.195Z,0.88
2022-08-08T02:48:01.942Z,0.65
2022-08-08T02:50:55.550Z,0.75
2022-08-08T02:53:53.413Z,1.08
2022-08-08T02:56:23.315Z,0.70
2022-08-08T02:59:57.181Z,0.85
2022-08-08T03:02:53.224Z,0.50
2022-08-08T03:05:58.892Z,0.80
2022-08-08T03:08:44.456Z,0.82
2022-08-08T03:11:47.716Z,0.75
2022-08-08T03:15:58.222Z,0.70
2022-08-08T03:17:39.774Z,0.60
2022-08-08T03:20:08.259Z,0.70
2022-08-08T03:22:56.969Z,0.88
2022-08-08T03:25:35.961Z,0.73
2022-08-08T03:28:07.505Z,1.20
2022-08-08T03:30:34.631Z,0.65
2022-08-08T03:33:55.109Z,0.63
2022-08-08T03:36:10.545Z,0.60
2022-08-08T03:38:56.240Z,0.60
2022-08-08T03:42:28.067Z,0.60
2022-08-08T03:44:25.560Z,0.75
2022-08-08T03:46:55.410Z,0.90
2022-08-08T03:49:59.010Z,0.90
2022-08-08T03:52:14.158Z,0.70
2022-08-08T03:55:01.779Z,0.70
2022-08-08T03:58:30.720Z,0.77
2022-08-08T04:00:19.616Z,0.73
2022-08-08T04:03:02.087Z,0.90
2022-08-08T04:05:39.959Z,0.70
2022-08-08T04:08:33.241Z,0.93
2022-08-08T04:11:11.056Z,0.80
2022-08-08T04:14:02.645Z,1.00
2022-08-08T04:16:40.071Z,1.13
2022-08-08T04:19:25.141Z,0.85
2022-08-08T04:21:54.373Z,0.90
2022-08-08T04:24:28.629Z,0.90
2022-08-08T04:26:57.509Z,0.75
2022-08-08T04:29:27.287Z,0.95
2022-08-08T04:31:58.876Z,0.82
2022-08-08T04:34:31.982Z,0.90
2022-08-08T04:37:10.669Z,0.98
2022-08-08T04:40:03.378Z,0.95
2022-08-08T04:42:27.066Z,0.70
2022-08-08T04:44:59.532Z,0.90
2022-08-08T04:47:27.345Z,1.15
2022-08-08T04:49:58.977Z,0.93
2022-08-08T04:52:33.801Z,0.85
2022-08-08T04:55:04.272Z,0.80
2022-08-08T04:57:34.439Z,0.95
2022-08-08T05:00:02.120Z,0.73
2022-08-08T05:02:30.934Z,1.17
2022-08-08T05:04:59.928Z,0.75
2022-08-08T05:07:37.687Z,1.08
2022-08-08T05:25:07.741Z,0.75
2022-08-08T05:27:41.309Z,0.50
2022-08-08T05:30:10.982Z,0.90
2022-08-08T05:32:39.354Z,1.00
2022-08-08T05:35:07.343Z,0.80
2022-08-08T05:37:53.051Z,1.00
2022-08-08T05:40:28.650Z,0.70
2022-08-08T05:43:38.628Z,0.82
2022-08-08T05:46:01.970Z,0.60
2022-08-08T05:48:32.968Z,0.80
2022-08-08T05:51:14.418Z,0.68
2022-08-08T05:56:42.522Z,1.23
2022-08-08T06:00:01.283Z,1.10
2022-08-08T06:02:39.094Z,0.80
2022-08-08T06:05:34.815Z,0.90
2022-08-08T06:08:02.181Z,0.90
2022-08-08T06:10:33.591Z,1.02
2022-08-08T06:13:01.849Z,0.70
2022-08-08T06:15:50.230Z,0.70
2022-08-08T06:18:21.967Z,0.75
2022-08-08T06:20:56.301Z,1.02
2022-08-08T06:23:29.172Z,0.90
2022-08-08T06:26:38.749Z,1.05
2022-08-08T06:29:18.681Z,0.85
2022-08-08T06:32:09.803Z,1.00
2022-08-08T06:34:40.240Z,1.00
2022-08-08T06:37:24.770Z,1.00
2022-08-08T06:39:56.960Z,1.10
2022-08-08T06:42:24.240Z,0.95
2022-08-08T06:44:53.383Z,1.05
2022-08-08T06:47:22.367Z,1.10
2022-08-08T06:49:56.735Z,1.08
2022-08-08T06:52:23.976Z,0.70
2022-08-08T06:54:58.696Z,1.10
2022-08-08T06:57:29.344Z,1.02
2022-08-08T07:00:12.838Z,0.85
2022-08-08T07:02:45.313Z,1.00
2022-08-08T07:05:24.853Z,1.05
2022-08-08T07:08:05.605Z,0.80
2022-08-08T07:10:47.625Z,1.45
2022-08-08T07:13:25.179Z,0.90
2022-08-08T07:16:10.235Z,1.05
2022-08-08T07:19:16.374Z,1.05
2022-08-08T07:22:00.531Z,0.90
2022-08-08T07:24:50.003Z,0.93
2022-08-08T07:27:35.078Z,1.25
2022-08-08T07:30:14.837Z,1.00
2022-08-08T07:32:43.842Z,1.10
2022-08-08T07:35:11.269Z,0.88
2022-08-08T07:37:56.129Z,0.77
2022-08-08T07:40:32.236Z,1.77
2022-08-08T07:43:04.219Z,1.05
2022-08-08T07:46:05.947Z,1.00
2022-08-08T07:48:29.979Z,0.98
2022-08-08T07:51:00.880Z,0.75
2022-08-08T07:54:01.459Z,1.05
2022-08-08T07:56:37.334Z,3.30
2022-08-08T07:59:15.772Z,3.20
2022-08-08T08:02:34.281Z,3.42
2022-08-08T08:04:49.422Z,4.05
2022-08-08T08:07:26.055Z,3.50
2022-08-08T08:10:03.714Z,3.05
2022-08-08T08:12:35.718Z,3.33
2022-08-08T08:15:11.965Z,3.63
2022-08-08T08:17:55.455Z,3.10
2022-08-08T08:20:29.785Z,3.97
2022-08-08T08:22:57.704Z,3.80
2022-08-08T08:25:43.720Z,3.75
2022-08-08T08:28:21.078Z,3.35
2022-08-08T08:30:50.114Z,3.60
2022-08-08T08:33:16.819Z,3.40
2022-08-08T08:36:19.379Z,3.63
2022-08-08T08:38:33.328Z,3.50
2022-08-08T08:41:01.314Z,3.38
2022-08-08T08:43:34.654Z,3.60
2022-08-08T08:46:03.329Z,3.60
2022-08-08T08:48:31.334Z,3.30
2022-08-08T08:51:01.405Z,3.50
2022-08-08T08:53:59.755Z,3.42
2022-08-08T08:56:25.271Z,2.97
2022-08-08T08:58:56.818Z,3.30
2022-08-08T09:01:28.476Z,3.60
2022-08-08T09:04:01.262Z,3.75
2022-08-08T09:06:34.354Z,3.50
2022-08-08T09:09:18.734Z,3.60
2022-08-08T09:12:02.288Z,3.30
2022-08-08T09:14:35.658Z,3.85
2022-08-08T09:17:15.732Z,3.50
2022-08-08T09:21:57.488Z,3.47
2022-08-08T09:22:35.249Z,3.30
2022-08-08T09:25:04.810Z,2.97
2022-08-08T09:27:55.743Z,3.08
2022-08-08T09:30:23.013Z,3.17
2022-08-08T09:33:12.858Z,3.10
2022-08-08T09:35:49.171Z,3.13
2022-08-08T09:38:53.211Z,3.17
2022-08-08T09:42:14.582Z,3.30
2022-08-08T09:44:46.878Z,3.70
2022-08-08T09:47:25.831Z,3.35
2022-08-08T09:50:21.252Z,3.22
2022-08-08T09:52:59.091Z,3.28
2022-08-08T09:56:05.108Z,3.50
2022-08-08T09:58:27.701Z,3.00
2022-08-08T10:01:14.558Z,3.33
2022-08-08T10:03:58.189Z,3.35
2022-08-08T10:06:30.221Z,2.90
2022-08-08T10:09:00.142Z,3.15
2022-08-08T10:12:25.949Z,2.97
2022-08-08T10:14:30.956Z,3.47
2022-08-08T10:17:57.378Z,2.78
2022-08-08T10:20:00.743Z,3.00
2022-08-08T10:22:32.342Z,3.15
2022-08-08T10:25:05.332Z,3.00
2022-08-08T10:27:42.112Z,3.25
2022-08-08T10:30:16.230Z,2.90
2022-08-08T10:33:00.338Z,3.30
2022-08-08T10:36:19.912Z,3.08
2022-08-08T10:38:19.690Z,3.08
2022-08-08T10:40:51.824Z,3.17
2022-08-08T10:43:20.008Z,3.17
2022-08-08T10:45:56.194Z,2.88
2022-08-08T10:48:58.480Z,2.90
2022-08-08T10:51:24.183Z,2.95
2022-08-08T10:53:57.103Z,3.60
2022-08-08T10:56:27.161Z,3.33
2022-08-08T10:59:08.225Z,2.60
2022-08-08T11:01:37.653Z,2.60
2022-08-08T11:04:10.524Z,3.10
2022-08-08T11:06:41.737Z,3.10
2022-08-08T11:09:19.386Z,2.83
2022-08-08T11:12:06.024Z,2.75
2022-08-08T11:14:34.799Z,2.50
2022-08-08T11:17:03.145Z,3.00
2022-08-08T11:19:34.256Z,3.30
2022-08-08T11:22:04.200Z,6.72
2022-08-08T11:24:35.831Z,3.08
2022-08-08T11:27:10.759Z,3.00
2022-08-08T11:30:04.125Z,3.20
2022-08-08T11:32:42.954Z,2.65
2022-08-08T11:35:27.337Z,2.60
2022-08-08T11:38:39.130Z,2.50
2022-08-08T11:40:52.699Z,2.88
2022-08-08T11:43:21.562Z,2.90
2022-08-08T11:46:09.753Z,2.70
2022-08-08T11:48:38.688Z,2.80
2022-08-08T11:51:29.470Z,2.60
2022-08-08T11:53:59.203Z,2.60
2022-08-08T11:56:34.534Z,2.60
2022-08-08T11:59:09.989Z,2.80
2022-08-08T12:01:37.324Z,2.80
2022-08-08T12:04:06.960Z,2.60
2022-08-08T12:06:34.067Z,2.83
2022-08-08T12:09:17.304Z,2.90
2022-08-08T12:11:49.562Z,3.28
2022-08-08T12:14:23.701Z,3.33
2022-08-08T12:16:53.336Z,2.75
2022-08-08T12:19:31.148Z,3.30
2022-08-08T12:22:08.856Z,2.60
2022-08-08T12:24:54.309Z,2.70
2022-08-08T12:27:26.659Z,2.78
2022-08-08T12:30:00.064Z,6.20
2022-08-08T12:32:34.552Z,2.58
2022-08-08T12:35:13.591Z,2.65
2022-08-08T12:37:48.182Z,2.33
2022-08-08T12:40:56.022Z,2.70
2022-08-08T12:43:46.192Z,2.80
2022-08-08T12:46:25.393Z,2.55
2022-08-08T12:51:58.432Z,3.60
2022-08-08T12:54:33.338Z,2.60
2022-08-08T12:57:17.527Z,2.60
2022-08-08T13:00:05.418Z,2.60
2022-08-08T13:02:42.041Z,2.45
2022-08-08T13:05:26.928Z,2.20
2022-08-08T13:08:20.743Z,2.10
2022-08-08T13:10:56.155Z,2.58
2022-08-08T13:13:35.128Z,2.33
2022-08-08T13:16:25.670Z,2.60
2022-08-08T13:19:00.622Z,2.85
2022-08-08T13:21:53.832Z,2.50
2022-08-08T13:24:42.228Z,2.42
2022-08-08T13:27:17.088Z,2.63
2022-08-08T13:29:54.397Z,2.63
2022-08-08T13:32:23.828Z,2.40
2022-08-08T13:34:56.419Z,2.28
2022-08-08T13:37:28.045Z,2.20
2022-08-08T13:40:18.137Z,7.22
2022-08-08T13:42:55.619Z,2.65
2022-08-08T13:45:24.378Z,2.63
2022-08-08T13:48:03.026Z,2.40
2022-08-08T13:50:43.175Z,2.50
2022-08-08T13:53:31.434Z,2.42
2022-08-08T13:56:05.410Z,5.10
2022-08-08T13:58:33.233Z,5.93
2022-08-08T14:01:32.959Z,2.85
2022-08-08T14:04:23.133Z,5.45
2022-08-08T14:06:59.267Z,2.97
2022-08-08T14:10:05.254Z,3.10
2022-08-08T14:12:30.720Z,5.80
2022-08-08T14:14:59.462Z,3.42
2022-08-08T14:17:58.105Z,2.78
2022-08-08T14:20:15.809Z,4.32
2022-08-08T14:23:30.069Z,3.30
2022-08-08T14:26:10.429Z,2.80
2022-08-08T14:28:39.740Z,3.53
2022-08-08T14:31:11.518Z,3.13
2022-08-08T14:33:57.967Z,2.67
2022-08-08T14:36:36.309Z,2.80
2022-08-08T14:39:11.757Z,3.38
2022-08-08T14:41:54.002Z,3.13
2022-08-08T14:44:33.651Z,2.75
2022-08-08T14:47:02.694Z,2.83
2022-08-08T14:50:06.759Z,6.80
2022-08-08T14:53:04.257Z,2.80
2022-08-08T14:55:42.087Z,3.30
2022-08-08T14:58:11.654Z,3.30
2022-08-08T15:00:43.390Z,5.05
2022-08-08T15:03:15.706Z,2.60
2022-08-08T15:05:54.318Z,4.43
2022-08-08T15:08:35.366Z,8.25
2022-08-08T15:11:09.064Z,3.53
2022-08-08T15:13:40.912Z,3.30
2022-08-08T15:16:23.201Z,4.55
2022-08-08T15:18:53.347Z,6.13
2022-08-08T15:21:22.693Z,2.40
2022-08-08T15:23:54.454Z,2.58
2022-08-08T15:26:25.587Z,6.57
2022-08-08T15:28:54.151Z,8.68
2022-08-08T15:31:41.537Z,5.53
2022-08-08T15:34:28.888Z,6.00
2022-08-08T15:36:58.071Z,2.63
2022-08-08T15:39:25.818Z,2.60
2022-08-08T15:41:55.530Z,4.60
2022-08-08T15:44:25.246Z,5.93
2022-08-08T15:46:54.947Z,2.70
2022-08-08T15:49:24.425Z,3.90
2022-08-08T15:51:54.916Z,2.60
2022-08-08T15:54:38.896Z,2.75
2022-08-08T15:57:09.228Z,2.70
2022-08-08T16:00:05.177Z,2.88
2022-08-08T16:02:28.858Z,4.18
2022-08-08T16:04:59.101Z,3.00
2022-08-08T16:07:39.463Z,2.67
2022-08-08T16:13:14.106Z,3.38
2022-08-08T16:13:27.675Z,2.60
2022-08-08T16:15:57.630Z,2.53
2022-08-08T16:18:27.660Z,2.63
2022-08-08T16:21:00.576Z,2.80
2022-08-08T16:23:31.893Z,3.10
2022-08-08T16:26:05.064Z,2.78
2022-08-08T16:28:41.359Z,2.50
2022-08-08T16:31:09.249Z,2.30
2022-08-08T16:33:39.176Z,4.70
2022-08-08T16:36:09.649Z,2.75
2022-08-08T16:38:40.440Z,2.67
2022-08-08T16:41:20.148Z,2.40
2022-08-08T16:43:51.232Z,3.00
2022-08-08T16:46:36.595Z,2.78
2022-08-08T16:49:08.057Z,2.75
2022-08-08T16:55:03.232Z,2.80
2022-08-08T16:55:04.693Z,2.90
2022-08-08T16:58:12.830Z,2.80
2022-08-08T17:00:09.298Z,2.92
2022-08-08T17:02:44.534Z,2.50
2022-08-08T17:05:12.883Z,2.63
2022-08-08T17:07:40.913Z,2.90
2022-08-08T17:10:09.722Z,2.78
2022-08-08T17:12:37.264Z,2.70
2022-08-08T17:15:17.933Z,2.78
2022-08-08T17:18:03.088Z,2.95
2022-08-08T17:20:39.570Z,2.65
2022-08-08T17:23:18.464Z,2.78
2022-08-08T17:25:54.161Z,2.50
2022-08-08T17:28:34.227Z,2.33
2022-08-08T17:31:15.087Z,2.72
2022-08-08T17:34:53.451Z,2.47
2022-08-08T17:36:55.151Z,3.25
2022-08-08T17:40:03.748Z,2.65
2022-08-08T17:42:19.548Z,2.40
2022-08-08T17:44:49.659Z,2.40
2022-08-08T17:47:23.774Z,2.30
2022-08-08T17:49:52.601Z,2.45
2022-08-08T17:52:23.171Z,3.85
2022-08-08T17:54:55.858Z,3.28
2022-08-08T17:57:28.848Z,2.65
2022-08-08T18:00:02.415Z,2.60
2022-08-08T18:02:30.043Z,3.17
2022-08-08T18:04:58.781Z,2.80
2022-08-08T18:08:04.011Z,2.13
2022-08-08T18:10:16.715Z,2.60
2022-08-08T18:12:45.937Z,2.50
2022-08-08T18:15:13.582Z,2.30
2022-08-08T18:18:09.061Z,2.40
2022-08-08T18:20:43.132Z,2.80
2022-08-08T18:23:15.294Z,2.58
2022-08-08T18:25:43.108Z,2.70
2022-08-08T18:28:13.731Z,2.65
2022-08-08T18:30:41.534Z,2.63
2022-08-08T18:33:20.291Z,2.60
2022-08-08T18:36:02.999Z,2.38
2022-08-08T18:38:30.057Z,3.20
2022-08-08T18:40:56.613Z,2.45
2022-08-08T18:43:43.215Z,2.50
2022-08-08T18:46:56.351Z,2.65
2022-08-08T18:48:57.891Z,2.60
2022-08-08T18:51:52.743Z,2.63
2022-08-08T18:54:22.410Z,2.47
2022-08-08T18:56:51.351Z,2.40
2022-08-08T18:59:17.916Z,2.40
2022-08-08T19:02:26.846Z,2.60
2022-08-08T19:04:32.297Z,2.53
2022-08-08T19:07:02.961Z,2.40
2022-08-08T19:09:48.931Z,2.78
2022-08-08T19:12:17.565Z,2.58
2022-08-08T19:14:46.745Z,2.50
2022-08-08T19:17:29.261Z,2.60
2022-08-08T19:20:02.524Z,2.75
2022-08-08T19:22:30.011Z,2.00
2022-08-08T19:26:01.610Z,3.53
2022-08-08T19:27:56.847Z,2.92
2022-08-08T19:30:27.084Z,2.67
2022-08-08T19:33:00.619Z,2.85
2022-08-08T19:35:45.206Z,2.53
2022-08-08T19:38:16.454Z,2.92
2022-08-08T19:40:44.138Z,2.60
2022-08-08T19:43:12.024Z,2.42
2022-08-08T19:45:57.291Z,2.60
2022-08-08T19:48:30.840Z,2.30
2022-08-08T19:51:01.502Z,2.33
2022-08-08T19:53:53.223Z,2.47
2022-08-08T19:56:25.923Z,2.60
2022-08-08T19:59:08.072Z,2.45
2022-08-08T20:02:01.365Z,2.30
2022-08-08T20:04:22.422Z,2.50
2022-08-08T20:06:50.869Z,2.78
2022-08-08T20:09:22.643Z,2.88
2022-08-08T20:11:50.665Z,2.70
2022-08-08T20:14:34.755Z,2.60
2022-08-08T20:17:04.294Z,2.63
2022-08-08T20:19:34.334Z,3.00
2022-08-08T20:22:13.352Z,2.90
2022-08-08T20:24:47.985Z,2.88
2022-08-08T20:27:20.511Z,2.92
2022-08-08T20:29:55.642Z,2.72
2022-08-08T20:32:31.796Z,2.65
2022-08-08T20:35:02.521Z,2.80
2022-08-08T20:37:46.775Z,2.70
2022-08-08T20:40:17.619Z,2.47
2022-08-08T20:43:00.602Z,3.13
2022-08-08T20:45:55.218Z,2.75
2022-08-08T20:48:15.823Z,2.70
2022-08-08T20:50:47.748Z,2.40
2022-08-08T20:53:16.670Z,2.40
2022-08-08T20:56:01.368Z,2.40
2022-08-08T20:58:28.294Z,2.50
2022-08-08T21:00:57.336Z,2.70
2022-08-08T21:03:23.920Z,2.92
2022-08-08T21:05:58.993Z,3.10
2022-08-08T21:08:36.913Z,2.75
2022-08-08T21:11:13.363Z,2.60
2022-08-08T21:13:41.154Z,2.30
2022-08-08T21:16:18.134Z,2.28
2022-08-08T21:18:57.267Z,2.55
2022-08-08T21:21:41.387Z,2.53
2022-08-08T21:24:24.068Z,2.88
2022-08-08T21:26:56.650Z,2.63
2022-08-08T21:30:05.432Z,2.53
2022-08-08T21:32:14.372Z,3.00
2022-08-08T21:34:49.579Z,2.95
2022-08-08T21:37:18.966Z,2.95
2022-08-08T21:39:56.461Z,2.85
2022-08-08T21:42:23.953Z,2.70
2022-08-08T21:44:58.833Z,2.70
2022-08-08T21:48:07.163Z,2.70
2022-08-08T21:50:14.321Z,2.70
2022-08-08T21:54:22.983Z,2.67
2022-08-08T21:56:20.160Z,2.50
2022-08-08T21:58:14.894Z,2.90
2022-08-08T22:00:44.050Z,2.78
2022-08-08T22:03:11.166Z,2.92
2022-08-08T22:05:42.185Z,2.75
2022-08-08T22:08:09.385Z,2.63
2022-08-08T22:10:37.732Z,2.63
2022-08-08T22:13:18.817Z,2.58
2022-08-08T22:15:58.604Z,3.17
2022-08-08T22:18:27.580Z,2.58
2022-08-08T22:20:55.792Z,2.80
2022-08-08T22:23:25.303Z,2.80
2022-08-08T22:26:27.192Z,3.05
2022-08-08T22:29:04.576Z,2.70
2022-08-08T22:31:29.703Z,2.90
2022-08-08T22:34:13.841Z,2.70
2022-08-08T22:36:42.938Z,2.75
2022-08-08T22:39:18.918Z,2.80
2022-08-08T22:41:46.128Z,2.50
2022-08-08T22:44:15.894Z,2.38
2022-08-08T22:46:42.737Z,3.00
2022-08-08T22:49:12.471Z,2.30
2022-08-08T22:51:46.692Z,2.33
2022-08-08T22:54:30.676Z,2.53
2022-08-08T22:57:01.158Z,2.42
2022-08-08T22:59:36.348Z,2.20
2022-08-08T23:02:14.428Z,2.13
2022-08-08T23:04:58.541Z,2.63
2022-08-08T23:07:51.370Z,2.20
2022-08-08T23:10:21.286Z,2.50
2022-08-08T23:12:51.706Z,2.40
2022-08-08T23:16:37.815Z,2.88
2022-08-08T23:18:11.789Z,2.40
2022-08-08T23:20:39.342Z,2.47
2022-08-08T23:23:05.910Z,2.70
2022-08-08T23:25:45.067Z,2.53
2022-08-08T23:28:14.322Z,2.75
2022-08-08T23:30:41.947Z,2.88
2022-08-08T23:33:19.063Z,2.85
2022-08-08T23:36:06.683Z,2.40
2022-08-08T23:38:34.315Z,2.60
2022-08-08T23:41:00.869Z,4.53
2022-08-08T23:43:31.599Z,4.03
2022-08-08T23:49:07.122Z,3.28
2022-08-08T23:49:18.170Z,3.88
2022-08-08T23:52:05.840Z,2.63
2022-08-08T23:54:41.696Z,0.95
2022-08-08T23:57:26.887Z,1.00
